sensor_id;sensor_type;location;lat;lon;timestamp;pressure;altitude;pressure_sealevel;temperature;humidity
60918;BME280;46792;38.854;-9.384;2023-03-29T00:01:18;99859.00;;;17.13;47.28
60918;BME280;46792;38.854;-9.384;2023-03-29T00:03:20;99882.06;;;17.21;46.82
60918;BME280;46792;38.854;-9.384;2023-03-29T00:05:21;99882.56;;;17.23;47.17
60918;BME280;46792;38.854;-9.384;2023-03-29T00:07:22;99890.34;;;17.15;48.47
60918;BME280;46792;38.854;-9.384;2023-03-29T00:09:25;99890.94;;;17.12;48.06
60918;BME280;46792;38.854;-9.384;2023-03-29T00:11:26;99890.03;;;17.17;47.58
60918;BME280;46792;38.854;-9.384;2023-03-29T00:13:27;99889.53;;;17.15;47.66
60918;BME280;46792;38.854;-9.384;2023-03-29T00:15:27;99887.13;;;17.13;47.81
60918;BME280;46792;38.854;-9.384;2023-03-29T00:17:28;99896.41;;;17.12;47.91
60918;BME280;46792;38.854;-9.384;2023-03-29T00:19:29;99898.53;;;17.15;47.53
60918;BME280;46792;38.854;-9.384;2023-03-29T00:21:34;99897.44;;;17.16;46.34
60918;BME280;46792;38.854;-9.384;2023-03-29T00:23:54;99902.63;;;17.32;45.58
60918;BME280;46792;38.854;-9.384;2023-03-29T00:26:07;99898.66;;;17.24;45.43
60918;BME280;46792;38.854;-9.384;2023-03-29T00:28:08;99899.66;;;17.28;44.88
60918;BME280;46792;38.854;-9.384;2023-03-29T00:30:08;99892.38;;;17.24;45.01
60918;BME280;46792;38.854;-9.384;2023-03-29T00:32:10;99888.47;;;17.44;44.04
60918;BME280;46792;38.854;-9.384;2023-03-29T00:34:11;99901.81;;;17.45;44.16
60918;BME280;46792;38.854;-9.384;2023-03-29T00:36:12;99893.25;;;17.52;44.44
60918;BME280;46792;38.854;-9.384;2023-03-29T00:38:13;99892.22;;;17.48;44.92
60918;BME280;46792;38.854;-9.384;2023-03-29T00:40:14;99896.13;;;17.42;45.46
60918;BME280;46792;38.854;-9.384;2023-03-29T00:49:51;99897.34;;;17.36;46.11
60918;BME280;46792;38.854;-9.384;2023-03-29T00:51:53;99896.84;;;17.33;46.34
60918;BME280;46792;38.854;-9.384;2023-03-29T00:54:00;99900.25;;;17.25;47.21
60918;BME280;46792;38.854;-9.384;2023-03-29T00:56:06;99904.19;;;17.19;47.42
60918;BME280;46792;38.854;-9.384;2023-03-29T00:58:13;99906.50;;;17.12;47.75
60918;BME280;46792;38.854;-9.384;2023-03-29T01:00:19;99900.19;;;16.97;50.48
60918;BME280;46792;38.854;-9.384;2023-03-29T01:02:25;99899.75;;;16.90;49.98
60918;BME280;46792;38.854;-9.384;2023-03-29T01:09:37;99896.63;;;16.78;50.50
60918;BME280;46792;38.854;-9.384;2023-03-29T01:11:44;99899.75;;;16.71;50.63
60918;BME280;46792;38.854;-9.384;2023-03-29T01:13:55;99902.78;;;16.69;51.91
60918;BME280;46792;38.854;-9.384;2023-03-29T01:15:59;99893.50;;;16.70;52.24
60918;BME280;46792;38.854;-9.384;2023-03-29T01:18:02;99888.56;;;16.72;52.91
60918;BME280;46792;38.854;-9.384;2023-03-29T01:20:08;99891.56;;;16.71;54.47
60918;BME280;46792;38.854;-9.384;2023-03-29T01:24:38;99881.56;;;16.66;55.00
60918;BME280;46792;38.854;-9.384;2023-03-29T01:28:56;99886.59;;;16.59;56.36
60918;BME280;46792;38.854;-9.384;2023-03-29T01:31:13;99874.59;;;16.60;56.16
60918;BME280;46792;38.854;-9.384;2023-03-29T01:33:40;99867.41;;;16.64;55.98
60918;BME280;46792;38.854;-9.384;2023-03-29T01:37:47;99857.03;;;16.66;55.31
60918;BME280;46792;38.854;-9.384;2023-03-29T01:39:51;99846.13;;;16.66;55.16
60918;BME280;46792;38.854;-9.384;2023-03-29T01:44:54;99859.09;;;16.75;54.41
60918;BME280;46792;38.854;-9.384;2023-03-29T01:49:37;99843.91;;;16.68;54.18
60918;BME280;46792;38.854;-9.384;2023-03-29T01:51:46;99840.69;;;16.66;53.84
60918;BME280;46792;38.854;-9.384;2023-03-29T01:56:24;99835.19;;;16.52;53.78
60918;BME280;46792;38.854;-9.384;2023-03-29T01:58:39;99827.28;;;16.51;54.06
60918;BME280;46792;38.854;-9.384;2023-03-29T02:00:41;99822.44;;;16.48;53.63
60918;BME280;46792;38.854;-9.384;2023-03-29T02:02:43;99819.56;;;16.39;53.76
60918;BME280;46792;38.854;-9.384;2023-03-29T02:04:49;99819.72;;;16.29;53.84
60918;BME280;46792;38.854;-9.384;2023-03-29T02:06:52;99799.28;;;16.12;54.43
60918;BME280;46792;38.854;-9.384;2023-03-29T02:08:54;99805.25;;;15.95;55.00
60918;BME280;46792;38.854;-9.384;2023-03-29T02:10:55;99802.91;;;15.83;55.66
60918;BME280;46792;38.854;-9.384;2023-03-29T02:15:36;99808.47;;;15.73;56.04
60918;BME280;46792;38.854;-9.384;2023-03-29T02:17:37;99804.38;;;15.75;55.93
60918;BME280;46792;38.854;-9.384;2023-03-29T02:19:38;99803.38;;;15.66;56.01
60918;BME280;46792;38.854;-9.384;2023-03-29T02:21:52;99809.44;;;15.63;55.76
60918;BME280;46792;38.854;-9.384;2023-03-29T02:23:58;99803.28;;;15.76;55.29
60918;BME280;46792;38.854;-9.384;2023-03-29T02:26:03;99802.22;;;15.72;54.72
60918;BME280;46792;38.854;-9.384;2023-03-29T02:28:06;99804.66;;;15.74;54.41
60918;BME280;46792;38.854;-9.384;2023-03-29T02:30:08;99800.66;;;15.66;53.87
60918;BME280;46792;38.854;-9.384;2023-03-29T02:32:38;99805.00;;;15.67;53.70
60918;BME280;46792;38.854;-9.384;2023-03-29T02:34:49;99799.56;;;15.67;53.10
60918;BME280;46792;38.854;-9.384;2023-03-29T02:36:59;99803.13;;;15.68;51.75
60918;BME280;46792;38.854;-9.384;2023-03-29T02:39:02;99804.28;;;15.80;50.20
60918;BME280;46792;38.854;-9.384;2023-03-29T02:41:05;99797.28;;;15.99;48.20
60918;BME280;46792;38.854;-9.384;2023-03-29T02:43:08;99788.59;;;16.16;47.00
60918;BME280;46792;38.854;-9.384;2023-03-29T02:45:13;99791.09;;;16.31;46.19
60918;BME280;46792;38.854;-9.384;2023-03-29T02:47:19;99782.06;;;16.50;43.67
60918;BME280;46792;38.854;-9.384;2023-03-29T02:49:22;99787.47;;;16.69;43.46
60918;BME280;46792;38.854;-9.384;2023-03-29T02:51:27;99792.75;;;16.79;43.33
60918;BME280;46792;38.854;-9.384;2023-03-29T02:53:42;99794.50;;;16.89;43.29
60918;BME280;46792;38.854;-9.384;2023-03-29T02:55:44;99790.59;;;16.95;42.37
60918;BME280;46792;38.854;-9.384;2023-03-29T02:57:46;99785.06;;;17.00;42.52
60918;BME280;46792;38.854;-9.384;2023-03-29T02:59:47;99784.84;;;17.11;42.62
60918;BME280;46792;38.854;-9.384;2023-03-29T03:01:48;99785.97;;;17.10;42.57
60918;BME280;46792;38.854;-9.384;2023-03-29T03:03:49;99779.09;;;17.12;42.69
60918;BME280;46792;38.854;-9.384;2023-03-29T03:05:51;99779.41;;;17.11;42.83
60918;BME280;46792;38.854;-9.384;2023-03-29T03:07:52;99775.56;;;17.12;43.01
60918;BME280;46792;38.854;-9.384;2023-03-29T03:09:52;99756.28;;;17.08;42.98
60918;BME280;46792;38.854;-9.384;2023-03-29T03:11:53;99771.94;;;17.16;42.85
60918;BME280;46792;38.854;-9.384;2023-03-29T03:16:34;99766.25;;;17.13;43.55
60918;BME280;46792;38.854;-9.384;2023-03-29T03:18:36;99756.78;;;17.10;43.39
60918;BME280;46792;38.854;-9.384;2023-03-29T03:20:37;99743.44;;;17.09;43.24
60918;BME280;46792;38.854;-9.384;2023-03-29T03:22:44;99739.59;;;17.10;42.02
60918;BME280;46792;38.854;-9.384;2023-03-29T03:24:48;99741.44;;;17.14;40.89
60918;BME280;46792;38.854;-9.384;2023-03-29T03:26:48;99739.50;;;17.29;41.15
60918;BME280;46792;38.854;-9.384;2023-03-29T03:28:49;99744.22;;;17.37;40.90
60918;BME280;46792;38.854;-9.384;2023-03-29T03:31:13;99740.19;;;17.48;40.72
60918;BME280;46792;38.854;-9.384;2023-03-29T03:33:33;99743.28;;;17.70;39.80
60918;BME280;46792;38.854;-9.384;2023-03-29T03:36:00;99731.63;;;17.78;39.16
60918;BME280;46792;38.854;-9.384;2023-03-29T03:38:03;99738.28;;;18.00;39.07
60918;BME280;46792;38.854;-9.384;2023-03-29T03:40:05;99732.50;;;18.01;38.67
60918;BME280;46792;38.854;-9.384;2023-03-29T03:42:06;99732.00;;;17.99;38.78
60918;BME280;46792;38.854;-9.384;2023-03-29T03:44:08;99737.97;;;18.01;39.46
60918;BME280;46792;38.854;-9.384;2023-03-29T03:46:09;99733.81;;;18.04;38.93
60918;BME280;46792;38.854;-9.384;2023-03-29T03:48:10;99732.19;;;18.03;38.83
60918;BME280;46792;38.854;-9.384;2023-03-29T03:50:37;99742.69;;;18.09;39.42
60918;BME280;46792;38.854;-9.384;2023-03-29T03:52:38;99740.25;;;18.08;39.74
60918;BME280;46792;38.854;-9.384;2023-03-29T03:54:58;99738.84;;;17.97;40.05
60918;BME280;46792;38.854;-9.384;2023-03-29T03:57:18;99744.13;;;17.93;40.43
60918;BME280;46792;38.854;-9.384;2023-03-29T03:59:24;99748.19;;;17.82;40.88
60918;BME280;46792;38.854;-9.384;2023-03-29T04:01:38;99745.38;;;17.73;41.48
60918;BME280;46792;38.854;-9.384;2023-03-29T04:03:49;99741.78;;;17.63;41.94
60918;BME280;46792;38.854;-9.384;2023-03-29T04:05:52;99735.13;;;17.56;42.53
60918;BME280;46792;38.854;-9.384;2023-03-29T04:07:54;99731.59;;;17.55;42.85
60918;BME280;46792;38.854;-9.384;2023-03-29T04:10:24;99723.00;;;17.48;43.26
60918;BME280;46792;38.854;-9.384;2023-03-29T04:12:34;99724.63;;;17.49;43.40
60918;BME280;46792;38.854;-9.384;2023-03-29T04:14:35;99725.91;;;17.52;43.64
60918;BME280;46792;38.854;-9.384;2023-03-29T04:16:42;99712.69;;;17.45;43.21
60918;BME280;46792;38.854;-9.384;2023-03-29T04:19:12;99727.00;;;17.64;43.12
60918;BME280;46792;38.854;-9.384;2023-03-29T04:23:52;99722.75;;;17.72;42.68
60918;BME280;46792;38.854;-9.384;2023-03-29T04:25:53;99717.44;;;17.90;41.60
60918;BME280;46792;38.854;-9.384;2023-03-29T04:28:17;99710.19;;;17.85;41.64
60918;BME280;46792;38.854;-9.384;2023-03-29T04:30:23;99709.78;;;17.78;41.84
60918;BME280;46792;38.854;-9.384;2023-03-29T04:32:33;99715.25;;;17.78;42.01
60918;BME280;46792;38.854;-9.384;2023-03-29T04:34:41;99708.31;;;17.72;42.46
60918;BME280;46792;38.854;-9.384;2023-03-29T04:37:00;99712.44;;;17.69;41.97
60918;BME280;46792;38.854;-9.384;2023-03-29T04:39:02;99708.41;;;17.67;42.15
60918;BME280;46792;38.854;-9.384;2023-03-29T04:41:04;99706.78;;;17.66;42.73
60918;BME280;46792;38.854;-9.384;2023-03-29T04:43:23;99713.53;;;17.82;41.47
60918;BME280;46792;38.854;-9.384;2023-03-29T04:45:40;99711.63;;;17.69;42.00
60918;BME280;46792;38.854;-9.384;2023-03-29T04:47:48;99715.91;;;17.61;42.59
60918;BME280;46792;38.854;-9.384;2023-03-29T04:49:52;99721.97;;;17.58;42.81
60918;BME280;46792;38.854;-9.384;2023-03-29T04:52:02;99733.81;;;17.53;43.06
60918;BME280;46792;38.854;-9.384;2023-03-29T04:54:04;99726.25;;;17.50;42.92
60918;BME280;46792;38.854;-9.384;2023-03-29T04:56:16;99729.38;;;17.43;43.20
60918;BME280;46792;38.854;-9.384;2023-03-29T04:58:42;99734.66;;;17.40;43.57
60918;BME280;46792;38.854;-9.384;2023-03-29T05:00:46;99733.81;;;17.39;43.25
60918;BME280;46792;38.854;-9.384;2023-03-29T05:03:11;99731.91;;;17.40;43.35
60918;BME280;46792;38.854;-9.384;2023-03-29T05:05:22;99743.81;;;17.44;43.42
60918;BME280;46792;38.854;-9.384;2023-03-29T05:07:24;99755.34;;;17.41;43.81
60918;BME280;46792;38.854;-9.384;2023-03-29T05:09:24;99741.41;;;17.28;44.37
60918;BME280;46792;38.854;-9.384;2023-03-29T05:11:25;99752.44;;;17.23;45.53
60918;BME280;46792;38.854;-9.384;2023-03-29T05:13:27;99754.25;;;17.14;46.30
60918;BME280;46792;38.854;-9.384;2023-03-29T05:15:27;99758.47;;;17.06;46.63
60918;BME280;46792;38.854;-9.384;2023-03-29T05:17:28;99754.34;;;17.09;46.33
60918;BME280;46792;38.854;-9.384;2023-03-29T05:19:37;99756.59;;;17.07;45.85
60918;BME280;46792;38.854;-9.384;2023-03-29T05:23:59;99768.78;;;17.09;45.64
60918;BME280;46792;38.854;-9.384;2023-03-29T05:26:26;99755.88;;;17.15;45.58
60918;BME280;46792;38.854;-9.384;2023-03-29T05:28:28;99768.59;;;17.20;45.67
60918;BME280;46792;38.854;-9.384;2023-03-29T05:30:28;99769.09;;;17.36;45.39
60918;BME280;46792;38.854;-9.384;2023-03-29T05:32:47;99765.16;;;17.42;45.67
60918;BME280;46792;38.854;-9.384;2023-03-29T05:34:51;99767.88;;;17.42;45.83
60918;BME280;46792;38.854;-9.384;2023-03-29T05:36:52;99766.25;;;17.41;46.46
60918;BME280;46792;38.854;-9.384;2023-03-29T05:38:54;99770.72;;;17.37;47.16
60918;BME280;46792;38.854;-9.384;2023-03-29T05:40:59;99765.03;;;17.33;47.67
60918;BME280;46792;38.854;-9.384;2023-03-29T05:45:22;99757.38;;;17.21;48.95
60918;BME280;46792;38.854;-9.384;2023-03-29T05:50:04;99764.16;;;17.24;49.64
60918;BME280;46792;38.854;-9.384;2023-03-29T05:52:08;99765.06;;;17.19;50.30
60918;BME280;46792;38.854;-9.384;2023-03-29T05:54:11;99761.31;;;17.15;51.11
60918;BME280;46792;38.854;-9.384;2023-03-29T05:56:11;99763.03;;;17.11;51.06
60918;BME280;46792;38.854;-9.384;2023-03-29T05:58:16;99758.91;;;17.13;51.27
60918;BME280;46792;38.854;-9.384;2023-03-29T06:00:21;99765.47;;;17.12;51.97
60918;BME280;46792;38.854;-9.384;2023-03-29T06:02:32;99737.38;;;17.12;52.18
60918;BME280;46792;38.854;-9.384;2023-03-29T06:07:19;99742.38;;;16.91;52.55
60918;BME280;46792;38.854;-9.384;2023-03-29T06:09:39;99745.19;;;16.85;52.56
60918;BME280;46792;38.854;-9.384;2023-03-29T06:11:41;99739.84;;;16.80;52.74
60918;BME280;46792;38.854;-9.384;2023-03-29T06:13:44;99739.75;;;16.71;53.39
60918;BME280;46792;38.854;-9.384;2023-03-29T06:15:45;99740.25;;;16.73;52.73
60918;BME280;46792;38.854;-9.384;2023-03-29T06:17:46;99737.59;;;16.68;52.73
60918;BME280;46792;38.854;-9.384;2023-03-29T06:19:48;99741.44;;;16.67;52.96
60918;BME280;46792;38.854;-9.384;2023-03-29T06:21:50;99753.16;;;16.68;53.66
60918;BME280;46792;38.854;-9.384;2023-03-29T06:23:58;99757.78;;;16.67;55.12
60918;BME280;46792;38.854;-9.384;2023-03-29T06:31:19;99778.31;;;16.79;58.78
60918;BME280;46792;38.854;-9.384;2023-03-29T06:33:22;99782.59;;;16.52;59.70
60918;BME280;46792;38.854;-9.384;2023-03-29T06:35:30;99786.34;;;16.56;59.01
60918;BME280;46792;38.854;-9.384;2023-03-29T06:37:38;99783.88;;;16.40;60.54
60918;BME280;46792;38.854;-9.384;2023-03-29T06:40:05;99799.63;;;16.44;60.37
60918;BME280;46792;38.854;-9.384;2023-03-29T06:42:13;99794.59;;;16.51;59.35
60918;BME280;46792;38.854;-9.384;2023-03-29T06:44:32;99793.69;;;16.55;60.79
60918;BME280;46792;38.854;-9.384;2023-03-29T06:46:39;99795.19;;;16.48;61.49
60918;BME280;46792;38.854;-9.384;2023-03-29T06:48:41;99791.34;;;16.49;61.48
60918;BME280;46792;38.854;-9.384;2023-03-29T06:50:42;99786.00;;;16.44;62.52
60918;BME280;46792;38.854;-9.384;2023-03-29T06:52:49;99795.88;;;16.39;62.08
60918;BME280;46792;38.854;-9.384;2023-03-29T06:54:50;99792.84;;;16.41;62.31
60918;BME280;46792;38.854;-9.384;2023-03-29T06:56:51;99803.53;;;16.37;62.22
60918;BME280;46792;38.854;-9.384;2023-03-29T06:58:55;99806.25;;;16.37;62.63
60918;BME280;46792;38.854;-9.384;2023-03-29T07:01:21;99800.28;;;16.35;62.80
60918;BME280;46792;38.854;-9.384;2023-03-29T07:03:27;99809.50;;;16.39;62.64
60918;BME280;46792;38.854;-9.384;2023-03-29T07:05:28;99811.19;;;16.35;63.03
60918;BME280;46792;38.854;-9.384;2023-03-29T07:07:31;99822.38;;;16.34;63.12
60918;BME280;46792;38.854;-9.384;2023-03-29T07:09:59;99827.00;;;16.33;63.40
60918;BME280;46792;38.854;-9.384;2023-03-29T07:14:40;99838.63;;;16.39;62.88
60918;BME280;46792;38.854;-9.384;2023-03-29T07:16:41;99838.38;;;16.40;62.01
60918;BME280;46792;38.854;-9.384;2023-03-29T07:18:49;99843.22;;;16.44;61.47
60918;BME280;46792;38.854;-9.384;2023-03-29T07:21:10;99842.59;;;16.47;62.18
60918;BME280;46792;38.854;-9.384;2023-03-29T07:23:12;99843.84;;;16.54;61.00
60918;BME280;46792;38.854;-9.384;2023-03-29T07:25:14;99855.28;;;16.56;60.27
60918;BME280;46792;38.854;-9.384;2023-03-29T07:27:16;99847.34;;;16.60;58.19
60918;BME280;46792;38.854;-9.384;2023-03-29T07:29:21;99858.59;;;16.72;57.82
60918;BME280;46792;38.854;-9.384;2023-03-29T07:31:23;99861.72;;;16.80;57.05
60918;BME280;46792;38.854;-9.384;2023-03-29T07:33:29;99859.94;;;16.89;57.10
60918;BME280;46792;38.854;-9.384;2023-03-29T07:35:34;99854.34;;;16.99;57.23
60918;BME280;46792;38.854;-9.384;2023-03-29T07:37:35;99854.53;;;17.03;56.25
60918;BME280;46792;38.854;-9.384;2023-03-29T07:39:38;99853.34;;;17.09;55.71
60918;BME280;46792;38.854;-9.384;2023-03-29T07:42:01;99856.78;;;17.15;56.29
60918;BME280;46792;38.854;-9.384;2023-03-29T07:44:02;99853.06;;;17.25;57.62
60918;BME280;46792;38.854;-9.384;2023-03-29T07:46:08;99860.25;;;17.35;58.19
60918;BME280;46792;38.854;-9.384;2023-03-29T07:48:10;99862.47;;;17.32;58.49
60918;BME280;46792;38.854;-9.384;2023-03-29T07:50:30;99854.31;;;17.32;58.74
60918;BME280;46792;38.854;-9.384;2023-03-29T07:52:36;99852.59;;;17.51;58.43
60918;BME280;46792;38.854;-9.384;2023-03-29T07:54:38;99862.69;;;17.50;58.25
60918;BME280;46792;38.854;-9.384;2023-03-29T07:56:52;99862.50;;;17.60;58.89
60918;BME280;46792;38.854;-9.384;2023-03-29T07:59:08;99856.44;;;17.63;57.96
60918;BME280;46792;38.854;-9.384;2023-03-29T08:01:12;99864.81;;;17.67;57.34
60918;BME280;46792;38.854;-9.384;2023-03-29T08:03:33;99871.38;;;17.66;57.11
60918;BME280;46792;38.854;-9.384;2023-03-29T08:05:35;99876.16;;;17.74;57.65
60918;BME280;46792;38.854;-9.384;2023-03-29T08:07:44;99869.78;;;17.79;57.29
60918;BME280;46792;38.854;-9.384;2023-03-29T08:09:48;99884.94;;;17.85;58.94
60918;BME280;46792;38.854;-9.384;2023-03-29T08:11:49;99886.66;;;17.95;62.32
60918;BME280;46792;38.854;-9.384;2023-03-29T08:13:58;99901.13;;;17.96;62.94
60918;BME280;46792;38.854;-9.384;2023-03-29T08:16:17;99914.19;;;17.99;64.30
60918;BME280;46792;38.854;-9.384;2023-03-29T08:18:25;99913.09;;;18.00;64.63
60918;BME280;46792;38.854;-9.384;2023-03-29T08:20:26;99930.50;;;18.04;65.22
60918;BME280;46792;38.854;-9.384;2023-03-29T08:22:31;99921.16;;;18.05;65.57
60918;BME280;46792;38.854;-9.384;2023-03-29T08:24:57;99913.78;;;18.05;65.63
60918;BME280;46792;38.854;-9.384;2023-03-29T08:27:03;99896.28;;;18.06;65.33
60918;BME280;46792;38.854;-9.384;2023-03-29T08:29:03;99896.66;;;18.14;65.47
60918;BME280;46792;38.854;-9.384;2023-03-29T08:31:06;99888.97;;;18.16;65.98
60918;BME280;46792;38.854;-9.384;2023-03-29T08:33:08;99897.59;;;18.23;65.99
60918;BME280;46792;38.854;-9.384;2023-03-29T08:35:09;99905.97;;;18.27;65.81
60918;BME280;46792;38.854;-9.384;2023-03-29T08:37:30;99891.59;;;18.35;65.22
60918;BME280;46792;38.854;-9.384;2023-03-29T08:39:32;99889.63;;;18.49;65.46
60918;BME280;46792;38.854;-9.384;2023-03-29T08:47:05;99874.41;;;18.80;63.12
60918;BME280;46792;38.854;-9.384;2023-03-29T08:49:15;99864.97;;;18.86;61.89
60918;BME280;46792;38.854;-9.384;2023-03-29T08:51:43;99867.56;;;18.91;56.59
60918;BME280;46792;38.854;-9.384;2023-03-29T08:53:50;99867.50;;;19.05;57.34
60918;BME280;46792;38.854;-9.384;2023-03-29T08:56:17;99868.50;;;19.09;57.19
60918;BME280;46792;38.854;-9.384;2023-03-29T08:58:41;99868.22;;;19.20;57.11
60918;BME280;46792;38.854;-9.384;2023-03-29T09:01:06;99864.13;;;19.31;56.76
60918;BME280;46792;38.854;-9.384;2023-03-29T09:03:30;99865.13;;;19.44;56.24
60918;BME280;46792;38.854;-9.384;2023-03-29T09:05:45;99860.34;;;19.58;56.48
60918;BME280;46792;38.854;-9.384;2023-03-29T09:07:55;99864.59;;;19.73;56.84
60918;BME280;46792;38.854;-9.384;2023-03-29T09:09:58;99867.25;;;19.87;56.60
60918;BME280;46792;38.854;-9.384;2023-03-29T09:26:47;99912.63;;;20.29;52.28
60918;BME280;46792;38.854;-9.384;2023-03-29T09:31:46;99932.94;;;20.36;51.61
60918;BME280;46792;38.854;-9.384;2023-03-29T09:34:03;99942.66;;;20.43;51.44
60918;BME280;46792;38.854;-9.384;2023-03-29T09:38:42;99943.63;;;20.64;50.10
60918;BME280;46792;38.854;-9.384;2023-03-29T09:40:46;99948.94;;;20.70;49.68
60918;BME280;46792;38.854;-9.384;2023-03-29T09:42:54;99950.59;;;20.88;49.93
60918;BME280;46792;38.854;-9.384;2023-03-29T09:45:02;99940.41;;;20.97;49.37
60918;BME280;46792;38.854;-9.384;2023-03-29T09:47:24;99931.38;;;21.15;49.24
60918;BME280;46792;38.854;-9.384;2023-03-29T09:49:33;99932.13;;;21.33;49.08
60918;BME280;46792;38.854;-9.384;2023-03-29T09:51:36;99939.34;;;21.46;48.35
60918;BME280;46792;38.854;-9.384;2023-03-29T09:53:39;99935.91;;;21.58;47.28
60918;BME280;46792;38.854;-9.384;2023-03-29T09:56:15;99939.94;;;21.69;46.74
60918;BME280;46792;38.854;-9.384;2023-03-29T09:58:35;99956.56;;;21.82;44.83
60918;BME280;46792;38.854;-9.384;2023-03-29T10:00:37;99966.84;;;21.94;44.93
60918;BME280;46792;38.854;-9.384;2023-03-29T10:02:38;99969.22;;;22.04;44.79
60918;BME280;46792;38.854;-9.384;2023-03-29T10:04:41;99977.56;;;22.16;44.67
60918;BME280;46792;38.854;-9.384;2023-03-29T10:06:51;99976.00;;;22.37;44.04
60918;BME280;46792;38.854;-9.384;2023-03-29T10:08:54;99970.59;;;22.49;43.65
60918;BME280;46792;38.854;-9.384;2023-03-29T10:11:06;99961.44;;;22.45;43.67
60918;BME280;46792;38.854;-9.384;2023-03-29T10:13:17;99959.06;;;22.56;44.13
60918;BME280;46792;38.854;-9.384;2023-03-29T10:15:20;99961.50;;;22.57;43.98
60918;BME280;46792;38.854;-9.384;2023-03-29T10:17:24;99967.25;;;22.64;42.78
60918;BME280;46792;38.854;-9.384;2023-03-29T10:19:30;99978.66;;;22.75;42.24
60918;BME280;46792;38.854;-9.384;2023-03-29T10:21:33;99974.22;;;22.83;42.76
60918;BME280;46792;38.854;-9.384;2023-03-29T10:23:37;99977.25;;;22.90;39.16
60918;BME280;46792;38.854;-9.384;2023-03-29T10:25:38;99969.72;;;23.00;39.29
60918;BME280;46792;38.854;-9.384;2023-03-29T10:27:42;99972.00;;;22.98;39.75
60918;BME280;46792;38.854;-9.384;2023-03-29T10:29:43;99974.94;;;23.14;38.18
60918;BME280;46792;38.854;-9.384;2023-03-29T10:31:44;99973.75;;;23.02;37.60
60918;BME280;46792;38.854;-9.384;2023-03-29T10:33:50;100002.09;;;23.03;38.48
60918;BME280;46792;38.854;-9.384;2023-03-29T10:35:54;99996.88;;;23.10;38.81
60918;BME280;46792;38.854;-9.384;2023-03-29T10:37:57;99999.34;;;23.24;39.72
60918;BME280;46792;38.854;-9.384;2023-03-29T10:39:58;100001.66;;;23.34;39.71
60918;BME280;46792;38.854;-9.384;2023-03-29T10:42:01;100008.69;;;23.44;40.46
60918;BME280;46792;38.854;-9.384;2023-03-29T10:44:03;99998.53;;;23.57;41.72
60918;BME280;46792;38.854;-9.384;2023-03-29T10:46:19;99991.19;;;23.61;41.11
60918;BME280;46792;38.854;-9.384;2023-03-29T10:48:30;99978.56;;;23.60;39.70
60918;BME280;46792;38.854;-9.384;2023-03-29T10:50:33;99978.47;;;23.81;39.35
60918;BME280;46792;38.854;-9.384;2023-03-29T10:52:34;99985.38;;;23.88;39.58
60918;BME280;46792;38.854;-9.384;2023-03-29T10:54:36;99980.66;;;23.88;38.17
60918;BME280;46792;38.854;-9.384;2023-03-29T10:56:55;99985.94;;;23.93;38.96
60918;BME280;46792;38.854;-9.384;2023-03-29T11:01:14;99967.03;;;24.04;38.59
60918;BME280;46792;38.854;-9.384;2023-03-29T11:06:22;99957.81;;;24.12;38.78
60918;BME280;46792;38.854;-9.384;2023-03-29T11:13:53;99928.50;;;23.70;38.46
60918;BME280;46792;38.854;-9.384;2023-03-29T11:16:34;99932.06;;;23.71;40.47
60918;BME280;46792;38.854;-9.384;2023-03-29T11:20:47;99895.06;;;23.84;39.04
60918;BME280;46792;38.854;-9.384;2023-03-29T11:23:19;99883.00;;;23.89;40.15
60918;BME280;46792;38.854;-9.384;2023-03-29T11:30:15;99887.25;;;23.49;39.14
60918;BME280;46792;38.854;-9.384;2023-03-29T11:39:14;99884.28;;;23.08;41.16
60918;BME280;46792;38.854;-9.384;2023-03-29T11:41:23;99884.72;;;22.98;40.34
60918;BME280;46792;38.854;-9.384;2023-03-29T11:45:38;99920.53;;;23.44;40.97
60918;BME280;46792;38.854;-9.384;2023-03-29T11:47:42;99918.59;;;23.57;38.43
60918;BME280;46792;38.854;-9.384;2023-03-29T11:49:53;99910.91;;;23.75;37.98
60918;BME280;46792;38.854;-9.384;2023-03-29T11:52:05;99914.28;;;24.06;38.32
60918;BME280;46792;38.854;-9.384;2023-03-29T11:54:19;99914.84;;;24.11;35.93
60918;BME280;46792;38.854;-9.384;2023-03-29T11:56:45;99915.16;;;24.22;36.55
60918;BME280;46792;38.854;-9.384;2023-03-29T11:58:51;99925.50;;;24.38;37.21
60918;BME280;46792;38.854;-9.384;2023-03-29T12:01:04;99927.09;;;24.39;37.31
60918;BME280;46792;38.854;-9.384;2023-03-29T12:05:48;99920.00;;;24.66;36.78
60918;BME280;46792;38.854;-9.384;2023-03-29T12:12:56;99907.69;;;24.76;34.30
60918;BME280;46792;38.854;-9.384;2023-03-29T12:17:19;99904.03;;;24.72;35.82
60918;BME280;46792;38.854;-9.384;2023-03-29T12:19:31;99915.44;;;24.70;34.79
60918;BME280;46792;38.854;-9.384;2023-03-29T12:21:34;99918.31;;;24.62;34.87
60918;BME280;46792;38.854;-9.384;2023-03-29T12:23:36;99926.56;;;24.74;35.24
60918;BME280;46792;38.854;-9.384;2023-03-29T12:28:38;99947.75;;;24.98;35.05
60918;BME280;46792;38.854;-9.384;2023-03-29T12:30:51;99946.19;;;25.13;34.21
60918;BME280;46792;38.854;-9.384;2023-03-29T12:33:29;99942.09;;;25.23;33.95
60918;BME280;46792;38.854;-9.384;2023-03-29T12:39:18;99954.91;;;25.44;33.55
60918;BME280;46792;38.854;-9.384;2023-03-29T12:42:24;99950.81;;;25.70;35.09
60918;BME280;46792;38.854;-9.384;2023-03-29T12:45:11;99949.94;;;25.98;35.64
60918;BME280;46792;38.854;-9.384;2023-03-29T12:47:18;99944.38;;;26.14;34.33
60918;BME280;46792;38.854;-9.384;2023-03-29T12:49:33;99934.72;;;26.23;34.73
60918;BME280;46792;38.854;-9.384;2023-03-29T12:51:35;99925.50;;;26.35;34.87
60918;BME280;46792;38.854;-9.384;2023-03-29T12:53:48;99905.81;;;26.21;32.90
60918;BME280;46792;38.854;-9.384;2023-03-29T12:55:53;99912.34;;;26.13;34.20
60918;BME280;46792;38.854;-9.384;2023-03-29T12:58:04;99903.13;;;26.08;32.79
60918;BME280;46792;38.854;-9.384;2023-03-29T13:02:36;99912.97;;;26.06;32.71
60918;BME280;46792;38.854;-9.384;2023-03-29T13:11:36;99896.22;;;25.83;32.58
60918;BME280;46792;38.854;-9.384;2023-03-29T13:13:40;99896.84;;;25.76;33.27
60918;BME280;46792;38.854;-9.384;2023-03-29T13:15:43;99892.03;;;25.73;33.71
60918;BME280;46792;38.854;-9.384;2023-03-29T13:20:53;99884.66;;;25.45;34.54
60918;BME280;46792;38.854;-9.384;2023-03-29T13:23:09;99870.72;;;25.41;34.22